Time;durP1;ratioP1;P1;durP2;ratioP2;P2;SDS_P1;SDS_P2;PMS_P1;PMS_P2;Temp;Humidity;BMP_temperature;BMP_pressure;BME280_temperature;BME280_humidity;BME280_pressure;Samples;Min_cycle;Max_cycle;Signal;HPM_P1;HPM_P2
2022/10/09 00:01:19;;;;;;;6.15;1.90;;;9.40;67.70;;;;;;5105070;28;20099;-60
2022/10/09 00:03:46;;;;;;;6.55;1.90;;;9.40;67.90;;;;;;5089205;28;20566;-61
2022/10/09 00:06:21;;;;;;;5.68;2.00;;;9.40;67.80;;;;;;5108144;28;20039;-59
2022/10/09 00:08:47;;;;;;;3.58;2.13;;;9.40;67.70;;;;;;5069721;28;20083;-60
2022/10/09 00:11:16;;;;;;;3.25;1.75;;;9.30;67.70;;;;;;5107949;28;20041;-59
2022/10/09 00:13:42;;;;;;;3.45;2.10;;;9.30;67.80;;;;;;5120975;28;20028;-59
2022/10/09 00:16:10;;;;;;;3.90;2.13;;;9.30;67.80;;;;;;5105989;28;20001;-59
2022/10/09 00:18:36;;;;;;;5.93;2.25;;;9.30;67.80;;;;;;5115098;28;20036;-59
2022/10/09 00:21:03;;;;;;;6.28;2.17;;;9.20;67.60;;;;;;5093777;28;20072;-60
2022/10/09 00:23:29;;;;;;;3.42;2.25;;;9.20;67.50;;;;;;5109502;28;20020;-60
2022/10/09 00:25:57;;;;;;;4.78;2.63;;;9.20;67.50;;;;;;5087297;28;20031;-59
2022/10/09 00:28:24;;;;;;;7.53;2.42;;;9.20;67.70;;;;;;5089299;28;20044;-59
2022/10/09 00:30:50;;;;;;;4.00;2.30;;;9.10;67.50;;;;;;5096775;28;20088;-58
2022/10/09 00:33:16;;;;;;;3.20;2.35;;;9.10;67.60;;;;;;5091053;28;20020;-59
2022/10/09 00:35:42;;;;;;;5.20;3.25;;;9.10;67.80;;;;;;5107659;28;20109;-60
2022/10/09 00:38:08;;;;;;;6.55;3.13;;;9.10;67.90;;;;;;5089154;28;20020;-59
2022/10/09 00:40:35;;;;;;;5.22;2.92;;;9.00;67.80;;;;;;5106250;28;20039;-59
2022/10/09 00:43:01;;;;;;;6.03;2.97;;;9.00;67.70;;;;;;5107927;28;20026;-59
2022/10/09 00:45:28;;;;;;;4.80;2.75;;;9.00;67.60;;;;;;5088271;28;20047;-60
2022/10/09 00:48:02;;;;;;;6.20;2.17;;;8.90;67.70;;;;;;5108446;28;20038;-60
2022/10/09 00:50:39;;;;;;;3.97;2.65;;;8.90;67.80;;;;;;5066323;28;20033;-59
2022/10/09 00:53:06;;;;;;;4.68;2.22;;;8.90;67.70;;;;;;5108858;28;20036;-59
2022/10/09 00:55:34;;;;;;;3.22;2.00;;;8.90;67.40;;;;;;5088693;28;20028;-61
2022/10/09 00:58:01;;;;;;;2.45;2.03;;;8.80;67.50;;;;;;5108974;28;20568;-60
2022/10/09 01:00:27;;;;;;;5.95;2.60;;;8.80;67.40;;;;;;5088838;28;20032;-59
2022/10/09 01:02:53;;;;;;;8.68;2.50;;;8.80;67.40;;;;;;5107570;28;20028;-62
2022/10/09 01:05:24;;;;;;;4.60;2.60;;;8.80;67.30;;;;;;5103908;28;20088;-59
2022/10/09 01:07:59;;;;;;;5.95;2.28;;;8.70;67.30;;;;;;5067522;28;20612;-61
2022/10/09 01:10:29;;;;;;;7.78;3.00;;;8.70;67.40;;;;;;5076325;28;20033;-61
2022/10/09 01:13:05;;;;;;;5.18;2.95;;;8.70;67.50;;;;;;5107344;28;20039;-59
2022/10/09 01:15:49;;;;;;;3.80;2.47;;;8.70;67.50;;;;;;5069836;28;20105;-62
2022/10/09 01:18:30;;;;;;;3.85;2.60;;;8.70;67.50;;;;;;5108312;28;20058;-61
2022/10/09 01:21:09;;;;;;;5.10;2.65;;;8.60;67.70;;;;;;5090765;28;20043;-59
2022/10/09 01:23:40;;;;;;;3.80;2.40;;;8.60;67.60;;;;;;5106956;28;20035;-60
2022/10/09 01:26:15;;;;;;;4.88;2.30;;;8.60;67.50;;;;;;5087308;28;20387;-60
2022/10/09 01:28:52;;;;;;;6.45;2.33;;;8.60;67.50;;;;;;5088257;28;20028;-61
2022/10/09 01:31:19;;;;;;;7.85;2.28;;;8.50;67.60;;;;;;5073205;28;20476;-58
2022/10/09 01:33:46;;;;;;;2.90;2.05;;;8.50;67.40;;;;;;5087914;28;20398;-60
2022/10/09 01:36:13;;;;;;;4.38;2.20;;;8.50;67.40;;;;;;5105407;28;20459;-60
2022/10/09 01:38:41;;;;;;;2.92;2.20;;;8.40;67.30;;;;;;5108007;28;20054;-59
2022/10/09 01:41:07;;;;;;;10.55;2.08;;;8.50;67.60;;;;;;5086857;28;20029;-60
2022/10/09 01:43:33;;;;;;;1.63;1.48;;;8.40;67.60;;;;;;5087837;28;20036;-60
2022/10/09 01:46:24;;;;;;;2.72;1.60;;;8.40;67.60;;;;;;5106305;28;20038;-59
2022/10/09 01:49:15;;;;;;;6.90;2.05;;;8.30;67.90;;;;;;5102459;28;20033;-59
2022/10/09 01:52:11;;;;;;;3.35;1.60;;;8.30;67.50;;;;;;5105890;28;20044;-59
2022/10/09 01:54:46;;;;;;;2.83;1.60;;;8.30;67.90;;;;;;5089727;28;20032;-61
2022/10/09 01:57:16;;;;;;;6.07;2.10;;;8.30;67.70;;;;;;5079471;28;20028;-62
2022/10/09 01:59:46;;;;;;;3.58;1.88;;;8.30;67.60;;;;;;5067146;28;20037;-59
2022/10/09 02:02:12;;;;;;;2.70;1.40;;;8.20;67.60;;;;;;5093559;28;20020;-60
2022/10/09 02:04:41;;;;;;;3.53;1.67;;;8.20;68.30;;;;;;5106888;28;20046;-62
2022/10/09 02:07:07;;;;;;;5.15;1.80;;;8.20;67.80;;;;;;5086355;28;20033;-61
2022/10/09 02:09:34;;;;;;;5.10;1.65;;;8.20;67.80;;;;;;5106971;28;20024;-59
2022/10/09 02:12:06;;;;;;;3.75;1.77;;;8.10;67.70;;;;;;5086423;28;20032;-61
2022/10/09 02:14:33;;;;;;;2.65;1.95;;;8.10;68.10;;;;;;5067270;28;20029;-61
2022/10/09 02:17:11;;;;;;;3.08;1.88;;;8.10;68.00;;;;;;5105460;28;20024;-59
2022/10/09 02:19:47;;;;;;;2.03;1.48;;;8.10;68.00;;;;;;5066882;28;20045;-60
2022/10/09 02:22:17;;;;;;;3.50;1.75;;;8.10;67.90;;;;;;5086113;28;20024;-60
2022/10/09 02:24:44;;;;;;;3.60;1.80;;;8.10;67.80;;;;;;5066622;28;20037;-60
2022/10/09 02:27:11;;;;;;;5.45;1.70;;;8.00;67.80;;;;;;5093753;28;20032;-60
2022/10/09 02:29:42;;;;;;;2.03;1.67;;;8.00;67.80;;;;;;5106606;28;20024;-59
2022/10/09 02:32:08;;;;;;;2.97;1.98;;;8.00;67.80;;;;;;5087414;28;20119;-60
2022/10/09 02:34:34;;;;;;;3.35;1.70;;;7.90;67.80;;;;;;5087142;28;20031;-59
2022/10/09 02:37:00;;;;;;;5.10;1.77;;;7.90;67.90;;;;;;5094003;28;20025;-59
2022/10/09 02:39:26;;;;;;;3.90;2.03;;;7.90;67.80;;;;;;5115290;28;20046;-59
2022/10/09 02:41:52;;;;;;;3.97;1.90;;;7.90;67.80;;;;;;5095402;28;20024;-59
2022/10/09 02:44:17;;;;;;;3.88;1.80;;;7.90;67.80;;;;;;5115287;28;20107;-61
2022/10/09 02:46:43;;;;;;;3.85;1.90;;;7.80;68.40;;;;;;5096306;28;20028;-61
2022/10/09 02:49:12;;;;;;;2.97;2.05;;;7.80;67.80;;;;;;5098737;28;20050;-60
2022/10/09 02:51:37;;;;;;;3.63;2.20;;;7.80;67.70;;;;;;5085558;28;20380;-61
2022/10/09 02:54:03;;;;;;;5.72;2.60;;;7.70;67.70;;;;;;5105967;28;20035;-59
2022/10/09 02:56:29;;;;;;;6.82;2.00;;;7.80;67.80;;;;;;5091208;28;20027;-61
2022/10/09 02:58:55;;;;;;;2.83;1.90;;;7.70;67.70;;;;;;5106759;28;20467;-60
2022/10/09 03:01:22;;;;;;;3.97;1.85;;;7.70;67.80;;;;;;5089986;28;20504;-60
2022/10/09 03:03:49;;;;;;;4.13;2.10;;;7.70;67.70;;;;;;5106719;28;20087;-60
2022/10/09 03:06:21;;;;;;;3.92;2.00;;;7.70;68.00;;;;;;5085689;28;20329;-60
2022/10/09 03:08:48;;;;;;;4.97;1.90;;;7.60;68.10;;;;;;5086370;28;20058;-60
2022/10/09 03:11:15;;;;;;;3.10;1.95;;;7.60;68.00;;;;;;5102447;28;20040;-62
2022/10/09 03:13:41;;;;;;;9.32;2.13;;;7.60;68.00;;;;;;5104610;28;20051;-59
2022/10/09 03:16:20;;;;;;;5.18;1.88;;;7.60;68.00;;;;;;5087389;28;20041;-60
2022/10/09 03:18:47;;;;;;;4.32;1.80;;;7.60;68.00;;;;;;5106322;28;20032;-58
2022/10/09 03:21:18;;;;;;;3.45;2.10;;;7.60;68.00;;;;;;5088054;28;20025;-58
2022/10/09 03:23:44;;;;;;;6.05;3.28;;;7.50;68.10;;;;;;5105348;28;20032;-60
2022/10/09 03:26:13;;;;;;;5.57;2.95;;;7.50;68.20;;;;;;5085857;28;20040;-60
2022/10/09 03:28:43;;;;;;;7.28;3.58;;;7.50;68.40;;;;;;5105252;28;20091;-60
2022/10/09 03:31:09;;;;;;;5.50;2.90;;;7.50;68.40;;;;;;5085357;28;20545;-61
2022/10/09 03:33:35;;;;;;;5.57;3.00;;;7.50;68.30;;;;;;5086343;28;20029;-59
2022/10/09 03:36:02;;;;;;;9.90;2.60;;;7.50;68.30;;;;;;5104955;28;20513;-60
2022/10/09 03:38:27;;;;;;;7.10;2.10;;;7.40;68.40;;;;;;5110586;28;20115;-59
2022/10/09 03:40:56;;;;;;;3.45;2.05;;;7.40;68.50;;;;;;5091092;28;20052;-61
2022/10/09 03:43:22;;;;;;;5.00;2.20;;;7.40;68.60;;;;;;5089453;28;20033;-61
2022/10/09 03:45:48;;;;;;;4.45;2.00;;;7.40;68.50;;;;;;5109690;28;20493;-59
2022/10/09 03:48:14;;;;;;;6.53;2.50;;;7.40;68.40;;;;;;5089927;28;20029;-59
2022/10/09 03:50:40;;;;;;;8.35;2.78;;;7.40;68.40;;;;;;5106154;28;20027;-59
2022/10/09 03:53:08;;;;;;;7.82;2.25;;;7.40;68.50;;;;;;5092287;28;20031;-60
2022/10/09 03:55:34;;;;;;;4.35;2.30;;;7.30;68.50;;;;;;5110122;28;20024;-60
2022/10/09 03:58:01;;;;;;;6.97;3.10;;;7.30;69.20;;;;;;5089496;28;20028;-60
2022/10/09 04:00:27;;;;;;;4.90;2.75;;;7.30;68.50;;;;;;5109957;28;20059;-60
2022/10/09 04:02:56;;;;;;;6.10;2.97;;;7.30;68.50;;;;;;5089769;28;20029;-60
2022/10/09 04:05:22;;;;;;;5.93;3.15;;;7.20;68.50;;;;;;5107953;28;20024;-61
2022/10/09 04:07:48;;;;;;;8.25;2.78;;;7.30;68.70;;;;;;5094461;28;20058;-59
2022/10/09 04:10:14;;;;;;;4.18;2.38;;;7.20;68.50;;;;;;5109565;28;20142;-59
2022/10/09 04:12:40;;;;;;;3.40;2.10;;;7.20;68.50;;;;;;5089066;28;20051;-60
2022/10/09 04:15:07;;;;;;;5.65;2.30;;;7.20;68.60;;;;;;5109536;28;20028;-59
2022/10/09 04:17:33;;;;;;;9.23;2.72;;;7.20;68.60;;;;;;5089657;28;20060;-60
2022/10/09 04:19:58;;;;;;;10.45;2.10;;;7.20;68.70;;;;;;5109245;28;20040;-60
2022/10/09 04:22:24;;;;;;;7.60;1.80;;;7.10;68.80;;;;;;5089495;28;20064;-59
2022/10/09 04:24:50;;;;;;;5.85;2.40;;;7.10;68.70;;;;;;5108984;28;20016;-59
2022/10/09 04:27:16;;;;;;;4.35;1.90;;;7.10;68.60;;;;;;5098129;28;20074;-59
2022/10/09 04:29:41;;;;;;;6.57;2.33;;;7.10;68.50;;;;;;5089587;28;20036;-60
2022/10/09 04:32:07;;;;;;;3.88;2.20;;;7.10;68.70;;;;;;5092016;28;20036;-61
2022/10/09 04:34:33;;;;;;;5.60;2.30;;;7.10;68.60;;;;;;5107548;28;20105;-59
2022/10/09 04:36:58;;;;;;;4.55;2.00;;;7.00;68.40;;;;;;5094032;28;20028;-61
2022/10/09 04:39:25;;;;;;;2.75;1.98;;;7.00;68.40;;;;;;5108084;28;20043;-59
2022/10/09 04:41:50;;;;;;;4.43;2.00;;;7.00;68.40;;;;;;5088549;28;20104;-60
2022/10/09 04:44:16;;;;;;;5.07;2.30;;;7.00;68.40;;;;;;5088856;28;20029;-60
2022/10/09 04:46:42;;;;;;;3.88;2.13;;;7.00;68.40;;;;;;5107608;28;20024;-59
2022/10/09 04:49:12;;;;;;;4.85;1.92;;;7.00;68.50;;;;;;5099941;28;20036;-59
2022/10/09 04:51:37;;;;;;;4.88;1.70;;;7.00;68.60;;;;;;5092727;28;20048;-61
2022/10/09 04:54:03;;;;;;;3.10;1.67;;;6.90;68.50;;;;;;5108339;28;20525;-58
2022/10/09 04:56:29;;;;;;;4.90;1.88;;;6.90;68.60;;;;;;5088232;28;20081;-60
2022/10/09 04:58:55;;;;;;;7.10;1.98;;;6.90;68.50;;;;;;5108283;28;20065;-59
2022/10/09 05:01:23;;;;;;;3.83;2.03;;;6.90;68.50;;;;;;5088471;28;20576;-59
2022/10/09 05:03:49;;;;;;;1.95;1.60;;;6.90;68.50;;;;;;5070774;28;20032;-59
2022/10/09 05:06:17;;;;;;;4.82;1.80;;;6.80;68.50;;;;;;5111620;28;20012;-60
2022/10/09 05:08:43;;;;;;;4.75;1.92;;;6.80;68.60;;;;;;5079770;28;20021;-60
2022/10/09 05:11:18;;;;;;;6.78;2.05;;;6.80;68.70;;;;;;5108458;28;20044;-60
2022/10/09 05:13:47;;;;;;;2.67;1.70;;;6.80;68.80;;;;;;5097929;28;20059;-59
2022/10/09 05:16:16;;;;;;;6.57;2.22;;;6.70;68.70;;;;;;5108583;28;20024;-61
2022/10/09 05:18:44;;;;;;;4.28;1.88;;;6.70;68.70;;;;;;5085992;28;20044;-59
2022/10/09 05:21:09;;;;;;;4.13;2.05;;;6.70;68.70;;;;;;5108184;28;20039;-59
2022/10/09 05:23:37;;;;;;;2.35;1.90;;;6.70;68.80;;;;;;5087610;28;20092;-60
2022/10/09 05:26:09;;;;;;;3.33;2.05;;;6.70;68.90;;;;;;5107691;28;20031;-60
2022/10/09 05:28:35;;;;;;;2.92;2.08;;;6.70;69.00;;;;;;5085852;28;20360;-60
2022/10/09 05:31:06;;;;;;;3.33;2.30;;;6.70;69.00;;;;;;5107643;28;20046;-60
2022/10/09 05:33:31;;;;;;;2.70;2.00;;;6.70;69.10;;;;;;5086032;28;20025;-59
2022/10/09 05:36:03;;;;;;;4.80;2.33;;;6.70;68.90;;;;;;5088020;28;20024;-60
2022/10/09 05:38:30;;;;;;;5.78;3.38;;;6.70;68.90;;;;;;5088928;28;20029;-59
2022/10/09 05:41:00;;;;;;;9.45;3.40;;;6.70;68.90;;;;;;5106216;28;20027;-58
2022/10/09 05:43:32;;;;;;;4.43;3.05;;;6.70;69.10;;;;;;5087198;28;20020;-59
2022/10/09 05:46:09;;;;;;;19.05;3.53;;;6.70;69.10;;;;;;5067688;28;20032;-59
2022/10/09 05:48:37;;;;;;;5.28;2.65;;;6.60;69.10;;;;;;5086915;28;20024;-60
2022/10/09 05:51:24;;;;;;;4.63;2.20;;;6.60;68.90;;;;;;5102836;28;20062;-60
2022/10/09 05:53:50;;;;;;;2.40;1.85;;;6.60;69.20;;;;;;5086491;28;20403;-59
2022/10/09 05:56:37;;;;;;;4.07;2.55;;;6.60;69.00;;;;;;5107277;28;20050;-59
2022/10/09 05:59:06;;;;;;;2.90;2.10;;;6.60;69.10;;;;;;5066709;28;20091;-60
2022/10/09 06:01:34;;;;;;;2.17;1.90;;;6.60;69.00;;;;;;5105595;28;20028;-59
2022/10/09 06:04:01;;;;;;;4.68;2.05;;;6.60;69.10;;;;;;5087548;28;20016;-61
2022/10/09 06:06:30;;;;;;;4.45;2.22;;;6.60;69.20;;;;;;5107153;28;20475;-59
2022/10/09 06:08:57;;;;;;;6.05;2.45;;;6.60;69.50;;;;;;5106830;28;20079;-60
2022/10/09 06:11:27;;;;;;;4.47;2.60;;;6.60;69.40;;;;;;5086443;28;20028;-61
2022/10/09 06:13:54;;;;;;;3.42;2.20;;;6.60;69.60;;;;;;5085046;28;20117;-60
2022/10/09 06:16:22;;;;;;;2.78;2.08;;;6.60;69.60;;;;;;5089919;28;20210;-60
2022/10/09 06:18:48;;;;;;;4.88;2.45;;;6.70;69.70;;;;;;5085677;28;20036;-61
2022/10/09 06:21:15;;;;;;;4.57;2.45;;;6.60;69.60;;;;;;5106589;28;20050;-61
2022/10/09 06:23:40;;;;;;;3.95;2.33;;;6.70;69.70;;;;;;5086233;28;20032;-60
2022/10/09 06:26:12;;;;;;;4.75;2.75;;;6.70;69.70;;;;;;5106326;28;20046;-60
2022/10/09 06:28:38;;;;;;;2.70;2.28;;;6.70;69.80;;;;;;5081789;28;20116;-60
2022/10/09 06:31:09;;;;;;;5.75;3.03;;;6.80;69.80;;;;;;5106381;28;20024;-60
2022/10/09 06:33:37;;;;;;;3.45;2.80;;;6.80;69.90;;;;;;5086079;28;20020;-59
2022/10/09 06:36:06;;;;;;;7.63;4.80;;;6.80;69.80;;;;;;5105123;28;20040;-60
2022/10/09 06:38:33;;;;;;;16.20;7.97;;;6.80;70.00;;;;;;5085660;28;20078;-60
2022/10/09 06:41:07;;;;;;;19.77;9.00;;;6.90;70.10;;;;;;5106276;28;20024;-59
2022/10/09 06:43:32;;;;;;;20.42;9.07;;;6.90;70.20;;;;;;5081771;28;20043;-60
2022/10/09 06:46:03;;;;;;;18.15;9.45;;;6.90;70.00;;;;;;5106048;28;20036;-60
2022/10/09 06:48:32;;;;;;;20.20;8.60;;;7.00;70.10;;;;;;5085522;28;20067;-61
2022/10/09 06:51:12;;;;;;;10.25;5.80;;;7.00;70.20;;;;;;5102085;28;20050;-59
2022/10/09 06:53:44;;;;;;;7.28;4.68;;;7.00;70.40;;;;;;5085627;28;20055;-60
2022/10/09 06:56:11;;;;;;;12.80;5.38;;;7.10;70.00;;;;;;5066287;28;20032;-60
2022/10/09 06:58:37;;;;;;;9.07;5.88;;;7.10;70.20;;;;;;5088419;28;20084;-59
2022/10/09 07:01:05;;;;;;;13.52;6.65;;;7.20;70.30;;;;;;5105933;28;20046;-60
2022/10/09 07:03:32;;;;;;;17.85;7.03;;;7.20;70.50;;;;;;5085545;28;20034;-60
2022/10/09 07:06:17;;;;;;;12.45;7.43;;;7.20;70.50;;;;;;5104249;28;20045;-60
2022/10/09 07:08:44;;;;;;;;;;;7.30;71.00;;;;;;5084012;28;20361;-60
2022/10/09 07:11:21;;;;;;;14.88;5.68;;;7.40;71.30;;;;;;5103390;28;19911;-59
2022/10/09 07:13:49;;;;;;;12.35;5.28;;;7.50;70.30;;;;;;5082661;28;20020;-61
2022/10/09 07:16:22;;;;;;;9.50;5.07;;;7.50;70.20;;;;;;5105971;28;20032;-60
2022/10/09 07:18:48;;;;;;;10.00;5.43;;;7.50;70.40;;;;;;5082630;28;20734;-60
2022/10/09 07:21:15;;;;;;;8.07;4.75;;;7.80;70.60;;;;;;5105399;28;20060;-61
2022/10/09 07:23:40;;;;;;;11.55;6.00;;;7.70;70.60;;;;;;5085612;28;20031;-61
2022/10/09 07:26:15;;;;;;;8.32;5.72;;;7.80;70.80;;;;;;5104126;28;20040;-62
2022/10/09 07:28:41;;;;;;;7.28;4.97;;;7.80;71.10;;;;;;5085213;28;20029;-60
2022/10/09 07:31:08;;;;;;;10.82;6.10;;;7.90;70.80;;;;;;5105751;28;20028;-59
2022/10/09 07:33:34;;;;;;;10.35;5.88;;;8.10;71.00;;;;;;5085354;28;20109;-60
2022/10/09 07:36:01;;;;;;;8.38;5.57;;;8.20;71.10;;;;;;5085908;28;20025;-60
2022/10/09 07:38:27;;;;;;;13.40;7.80;;;8.30;71.20;;;;;;5091168;28;20119;-59
2022/10/09 07:40:53;;;;;;;11.18;7.75;;;8.40;71.30;;;;;;5105239;28;20032;-59
2022/10/09 07:43:20;;;;;;;10.70;6.95;;;8.60;71.40;;;;;;5084306;28;20336;-61
2022/10/09 07:45:46;;;;;;;10.68;6.30;;;8.70;71.40;;;;;;5105351;28;20028;-61
2022/10/09 07:48:12;;;;;;;11.10;5.72;;;8.90;71.50;;;;;;5085240;28;20094;-60
2022/10/09 07:50:38;;;;;;;12.00;5.97;;;9.10;71.40;;;;;;5104901;28;20020;-59
2022/10/09 07:53:03;;;;;;;12.82;6.75;;;9.20;71.60;;;;;;5084974;28;20059;-60
2022/10/09 07:55:29;;;;;;;11.43;5.88;;;9.40;71.70;;;;;;5105413;28;20078;-61
2022/10/09 07:57:55;;;;;;;14.88;5.97;;;9.60;71.80;;;;;;5085507;28;20085;-60
2022/10/09 08:00:20;;;;;;;6.72;4.30;;;9.80;71.90;;;;;;5107114;28;20047;-60
2022/10/09 08:02:47;;;;;;;7.03;4.50;;;9.90;71.70;;;;;;5099020;28;20020;-60
2022/10/09 08:05:13;;;;;;;11.68;3.67;;;10.10;71.70;;;;;;5112601;28;20100;-59
2022/10/09 08:07:38;;;;;;;8.15;3.92;;;10.30;71.90;;;;;;5090452;28;20025;-61
2022/10/09 08:10:04;;;;;;;10.93;5.05;;;10.40;72.00;;;;;;5085913;28;20541;-60
2022/10/09 08:12:30;;;;;;;7.72;3.72;;;10.60;71.90;;;;;;5098855;28;20032;-59
2022/10/09 08:14:56;;;;;;;9.63;4.00;;;10.70;71.80;;;;;;5103832;28;20039;-60
2022/10/09 08:17:21;;;;;;;6.78;3.50;;;10.90;71.90;;;;;;5088627;28;20121;-60
2022/10/09 08:19:47;;;;;;;6.97;3.92;;;11.00;71.60;;;;;;5105654;28;20032;-61
2022/10/09 08:22:13;;;;;;;8.18;4.20;;;11.20;71.60;;;;;;5085672;28;20039;-60
2022/10/09 08:24:38;;;;;;;7.95;4.28;;;11.30;71.50;;;;;;5108671;28;20051;-59
2022/10/09 08:27:05;;;;;;;7.80;3.92;;;11.40;71.20;;;;;;5087391;28;20025;-61
2022/10/09 08:29:31;;;;;;;6.18;3.47;;;11.60;71.10;;;;;;5108788;28;20088;-59
2022/10/09 08:31:57;;;;;;;10.98;3.70;;;11.70;71.00;;;;;;5089363;28;20152;-60
2022/10/09 08:34:22;;;;;;;6.68;3.65;;;11.90;70.80;;;;;;5107486;28;20034;-59
2022/10/09 08:36:48;;;;;;;6.35;3.25;;;12.00;70.80;;;;;;5089306;28;20039;-59
2022/10/09 08:39:14;;;;;;;7.10;3.42;;;12.20;70.80;;;;;;5088762;28;20056;-60
2022/10/09 08:41:49;;;;;;;6.78;3.80;;;12.40;70.70;;;;;;5108255;28;20035;-61
2022/10/09 08:44:45;;;;;;;5.35;3.28;;;12.50;70.60;;;;;;5088196;28;20078;-60
2022/10/09 08:47:18;;;;;;;7.28;3.15;;;12.70;70.70;;;;;;5070250;28;20553;-60
2022/10/09 08:49:49;;;;;;;11.45;3.30;;;12.90;70.40;;;;;;5096001;28;20077;-60
2022/10/09 08:52:22;;;;;;;7.35;3.15;;;13.00;70.30;;;;;;5105853;28;20048;-60
2022/10/09 08:54:48;;;;;;;6.93;3.17;;;13.20;70.10;;;;;;5108904;28;20024;-60
2022/10/09 08:57:16;;;;;;;8.65;3.10;;;13.30;69.90;;;;;;5089497;28;20051;-61
2022/10/09 08:59:42;;;;;;;5.43;2.72;;;13.50;69.50;;;;;;5108979;28;20028;-59
2022/10/09 09:02:24;;;;;;;11.82;3.50;;;13.70;69.30;;;;;;5087791;28;20020;-60
2022/10/09 09:05:11;;;;;;;5.05;2.85;;;13.80;68.80;;;;;;5071636;28;20448;-60
2022/10/09 09:07:42;;;;;;;6.55;2.33;;;14.00;68.40;;;;;;5076110;28;20155;-60
2022/10/09 09:10:16;;;;;;;10.25;3.03;;;14.20;68.10;;;;;;5098223;28;20020;-60
2022/10/09 09:12:57;;;;;;;5.03;2.40;;;14.30;67.60;;;;;;5080812;28;20043;-59
2022/10/09 09:15:54;;;;;;;7.95;2.60;;;14.40;67.00;;;;;;5068297;28;20800;-60
2022/10/09 09:18:38;;;;;;;4.13;2.47;;;14.50;66.60;;;;;;5076994;28;20031;-60
2022/10/09 09:21:24;;;;;;;5.43;2.17;;;14.50;66.80;;;;;;5068254;28;20056;-60
2022/10/09 09:23:50;;;;;;;6.05;2.50;;;14.70;66.90;;;;;;5067626;28;20051;-60
2022/10/09 09:26:18;;;;;;;2.92;2.00;;;14.80;66.60;;;;;;5107095;28;20024;-60
2022/10/09 09:28:45;;;;;;;4.35;2.30;;;14.80;66.20;;;;;;5087129;28;20032;-60
2022/10/09 09:31:30;;;;;;;7.47;2.50;;;15.00;66.00;;;;;;5107900;28;20032;-60
2022/10/09 09:34:18;;;;;;;5.82;2.67;;;15.10;65.00;;;;;;5075973;28;20033;-61
2022/10/09 09:36:50;;;;;;;6.03;2.20;;;15.20;64.50;;;;;;5067896;28;20028;-60
2022/10/09 09:39:16;;;;;;;6.05;2.08;;;15.30;64.90;;;;;;5082845;28;20043;-60
2022/10/09 09:41:43;;;;;;;4.00;2.10;;;15.30;64.20;;;;;;5107352;28;20036;-60
2022/10/09 09:44:10;;;;;;;5.47;2.22;;;15.40;63.90;;;;;;5087087;28;20029;-60
2022/10/09 09:46:37;;;;;;;6.80;2.63;;;15.40;63.80;;;;;;5104177;28;20056;-62
2022/10/09 09:49:22;;;;;;;8.60;2.50;;;15.40;64.10;;;;;;5099275;28;20044;-60
2022/10/09 09:51:48;;;;;;;;;;;15.50;63.40;;;;;;5097550;28;20071;-60
2022/10/09 09:54:23;;;;;;;7.55;2.30;;;15.60;63.90;;;;;;5087231;28;19942;-60
2022/10/09 09:56:51;;;;;;;7.82;2.17;;;15.70;63.70;;;;;;5087574;28;20056;-60
2022/10/09 09:59:30;;;;;;;2.75;1.85;;;15.70;63.90;;;;;;5089211;28;20467;-61
2022/10/09 10:02:04;;;;;;;4.72;2.05;;;15.90;62.50;;;;;;5107751;28;20035;-60
2022/10/09 10:04:31;;;;;;;8.32;2.00;;;15.90;62.10;;;;;;5086732;28;20032;-60
2022/10/09 10:06:57;;;;;;;4.60;2.33;;;16.00;62.70;;;;;;5106963;28;20039;-63
2022/10/09 10:09:22;;;;;;;3.80;1.90;;;16.10;62.90;;;;;;5087102;28;20024;-60
2022/10/09 10:11:58;;;;;;;6.70;2.45;;;16.10;62.80;;;;;;5087052;28;20087;-62
2022/10/09 10:14:25;;;;;;;5.85;2.33;;;16.20;62.80;;;;;;5083322;28;20530;-61
2022/10/09 10:16:54;;;;;;;5.43;2.10;;;16.30;62.90;;;;;;5106736;28;20024;-60
2022/10/09 10:19:28;;;;;;;6.97;2.20;;;16.40;62.70;;;;;;5086265;28;20417;-61
2022/10/09 10:22:04;;;;;;;8.18;2.33;;;16.50;62.40;;;;;;5106709;28;20027;-61
2022/10/09 10:24:44;;;;;;;4.75;2.00;;;16.60;62.30;;;;;;5084342;28;20032;-60
2022/10/09 10:27:39;;;;;;;6.40;2.22;;;16.70;61.50;;;;;;5066726;28;20040;-60
2022/10/09 10:30:12;;;;;;;8.38;2.60;;;16.80;61.50;;;;;;5086615;28;20025;-60
2022/10/09 10:32:44;;;;;;;4.55;2.28;;;16.90;61.50;;;;;;5105891;28;20063;-59
2022/10/09 10:35:15;;;;;;;6.18;2.30;;;16.90;61.30;;;;;;5107382;28;20024;-61
2022/10/09 10:37:56;;;;;;;6.63;2.47;;;16.90;60.50;;;;;;5068162;28;20037;-60
2022/10/09 10:40:41;;;;;;;4.18;2.00;;;16.90;60.20;;;;;;5085122;28;20024;-60
2022/10/09 10:43:10;;;;;;;8.07;2.15;;;16.90;60.30;;;;;;5077304;28;20499;-61
2022/10/09 10:45:41;;;;;;;5.38;2.08;;;16.90;60.20;;;;;;5106827;28;20024;-60
2022/10/09 10:48:32;;;;;;;3.45;2.00;;;16.90;60.50;;;;;;5071770;28;20052;-61
2022/10/09 10:50:57;;;;;;;4.22;2.53;;;16.90;59.90;;;;;;5071325;28;20484;-60
2022/10/09 10:53:41;;;;;;;6.45;2.45;;;16.90;60.40;;;;;;5096562;28;20024;-61
2022/10/09 10:56:35;;;;;;;4.07;2.53;;;16.90;59.30;;;;;;5066234;28;20089;-60
2022/10/09 10:59:09;;;;;;;6.43;2.50;;;16.90;59.10;;;;;;5076353;28;20457;-60
2022/10/09 11:01:51;;;;;;;5.97;2.50;;;17.00;59.80;;;;;;5086197;28;20279;-61
2022/10/09 11:04:46;;;;;;;6.40;2.28;;;17.00;59.20;;;;;;5080183;28;20032;-61
2022/10/09 11:07:18;;;;;;;4.45;2.38;;;17.10;59.40;;;;;;5082214;28;20028;-60
2022/10/09 11:09:56;;;;;;;4.38;2.75;;;17.10;59.20;;;;;;5083921;28;20523;-59
2022/10/09 11:12:41;;;;;;;5.53;2.63;;;17.20;59.50;;;;;;5086095;28;20067;-60
2022/10/09 11:15:29;;;;;;;3.35;2.15;;;17.30;58.90;;;;;;5106567;28;20489;-60
2022/10/09 11:18:19;;;;;;;9.40;2.80;;;17.40;59.60;;;;;;5068244;28;20043;-60
2022/10/09 11:20:51;;;;;;;4.10;2.05;;;17.60;59.40;;;;;;5066035;28;20044;-59
2022/10/09 11:23:48;;;;;;;7.45;2.40;;;17.60;59.50;;;;;;5075763;28;20064;-59
2022/10/09 11:26:33;;;;;;;5.75;2.17;;;17.70;58.20;;;;;;5077989;28;20475;-60
2022/10/09 11:29:04;;;;;;;4.55;2.60;;;17.80;58.90;;;;;;5087376;28;20039;-60
2022/10/09 11:31:33;;;;;;;4.55;2.22;;;17.90;58.60;;;;;;5065921;28;20033;-60
2022/10/09 11:34:04;;;;;;;4.00;2.67;;;17.90;58.30;;;;;;5093047;28;20060;-62
2022/10/09 11:36:40;;;;;;;6.63;2.42;;;17.90;56.80;;;;;;5065896;28;20032;-61
2022/10/09 11:39:22;;;;;;;10.95;2.58;;;17.90;56.80;;;;;;5064816;28;20044;-60
2022/10/09 11:41:51;;;;;;;10.02;2.83;;;17.80;56.50;;;;;;5065564;28;20025;-60
2022/10/09 11:44:31;;;;;;;4.68;2.03;;;17.80;57.60;;;;;;5090734;28;20355;-61
2022/10/09 11:47:33;;;;;;;3.97;2.13;;;17.80;57.40;;;;;;5105873;28;20030;-61
2022/10/09 11:50:24;;;;;;;8.43;2.58;;;17.80;57.50;;;;;;5026621;28;20043;-61
2022/10/09 11:53:17;;;;;;;4.75;2.58;;;17.80;57.70;;;;;;5066104;28;20041;-61
2022/10/09 11:55:43;;;;;;;6.28;3.33;;;17.80;57.40;;;;;;5067680;28;20090;-60
2022/10/09 11:58:18;;;;;;;3.67;2.50;;;17.80;58.00;;;;;;5106422;28;20024;-61
2022/10/09 12:00:45;;;;;;;4.40;2.30;;;17.80;57.60;;;;;;5108788;28;20119;-62
2022/10/09 12:03:23;;;;;;;4.68;2.30;;;17.80;57.80;;;;;;5092869;28;20024;-60
2022/10/09 12:05:51;;;;;;;2.92;1.98;;;17.80;57.00;;;;;;5109681;28;20035;-61
2022/10/09 12:08:25;;;;;;;4.57;2.15;;;17.80;57.90;;;;;;5088787;28;20413;-60
2022/10/09 12:10:56;;;;;;;;;;;17.90;57.90;;;;;;5089797;28;20031;-61
2022/10/09 12:13:35;;;;;;;5.97;2.17;;;17.90;57.60;;;;;;5102837;28;19912;-60
2022/10/09 12:16:01;;;;;;;4.30;1.67;;;18.00;57.40;;;;;;5068126;28;20061;-61
2022/10/09 12:18:33;;;;;;;5.20;2.03;;;18.00;57.80;;;;;;5107560;28;20035;-61
2022/10/09 12:21:02;;;;;;;6.80;2.10;;;18.00;57.70;;;;;;5109765;28;20020;-60
2022/10/09 12:23:32;;;;;;;3.63;2.17;;;18.10;57.50;;;;;;5094169;28;20054;-60
2022/10/09 12:26:00;;;;;;;5.45;2.13;;;18.10;57.20;;;;;;5108216;28;20142;-60
2022/10/09 12:28:37;;;;;;;8.98;2.30;;;18.10;57.20;;;;;;5093969;28;20056;-61
2022/10/09 12:31:07;;;;;;;5.90;2.72;;;18.10;57.20;;;;;;5109278;28;20107;-62
2022/10/09 12:33:39;;;;;;;4.63;1.88;;;18.20;57.10;;;;;;5074856;28;20096;-60
2022/10/09 12:36:13;;;;;;;5.22;1.95;;;18.20;56.10;;;;;;5069243;28;20029;-62
2022/10/09 12:38:40;;;;;;;4.75;1.77;;;18.20;55.90;;;;;;5107382;28;20032;-62
2022/10/09 12:41:19;;;;;;;2.92;1.77;;;18.20;56.20;;;;;;5100136;28;20079;-59
2022/10/09 12:43:46;;;;;;;5.88;2.28;;;18.20;54.80;;;;;;5068088;28;20027;-60
2022/10/09 12:46:12;;;;;;;3.13;1.85;;;18.10;55.30;;;;;;5103363;28;20017;-61
2022/10/09 12:48:44;;;;;;;6.95;2.30;;;18.00;55.70;;;;;;4997669;28;20095;-61
2022/10/09 12:51:23;;;;;;;2.60;1.65;;;18.00;56.20;;;;;;5098068;28;20051;-60
2022/10/09 12:53:50;;;;;;;3.55;1.63;;;18.00;55.90;;;;;;5108458;28;20013;-60
2022/10/09 12:56:29;;;;;;;6.93;4.47;;;18.00;56.20;;;;;;5117579;28;20028;-61
2022/10/09 12:58:56;;;;;;;7.88;3.40;;;18.00;55.50;;;;;;5088687;28;20048;-60
2022/10/09 13:01:22;;;;;;;5.82;3.30;;;18.00;56.20;;;;;;5089282;28;20038;-61
2022/10/09 13:03:57;;;;;;;3.00;2.00;;;17.90;56.20;;;;;;5095093;28;20032;-61
2022/10/09 13:06:49;;;;;;;7.18;3.22;;;17.90;56.20;;;;;;5068516;28;20044;-59
2022/10/09 13:09:42;;;;;;;5.13;2.47;;;17.90;56.40;;;;;;5077917;28;20041;-60
2022/10/09 13:12:21;;;;;;;15.55;10.88;;;17.90;56.20;;;;;;5080474;28;20399;-60